sensor_id;sensor_type;location;lat;lon;timestamp;P1;durP1;ratioP1;P2;durP2;ratioP2
59880;SDS011;45751;51.380;10.326;2023-11-21T00:00:02;7.15;;;2.63;;
59880;SDS011;45751;51.380;10.326;2023-11-21T00:02:38;7.65;;;2.80;;
59880;SDS011;45751;51.380;10.326;2023-11-21T00:05:06;8.30;;;2.95;;
59880;SDS011;45751;51.380;10.326;2023-11-21T00:07:37;6.60;;;1.98;;
59880;SDS011;45751;51.380;10.326;2023-11-21T00:10:04;7.68;;;2.40;;
59880;SDS011;45751;51.380;10.326;2023-11-21T00:12:33;9.45;;;3.13;;
59880;SDS011;45751;51.380;10.326;2023-11-21T00:14:59;7.88;;;2.58;;
59880;SDS011;45751;51.380;10.326;2023-11-21T00:17:27;6.68;;;2.72;;
59880;SDS011;45751;51.380;10.326;2023-11-21T00:19:53;8.43;;;3.03;;
59880;SDS011;45751;51.380;10.326;2023-11-21T00:22:19;7.25;;;2.65;;
59880;SDS011;45751;51.380;10.326;2023-11-21T00:24:45;7.97;;;2.95;;
59880;SDS011;45751;51.380;10.326;2023-11-21T00:27:11;7.70;;;3.15;;
59880;SDS011;45751;51.380;10.326;2023-11-21T00:29:37;8.20;;;3.10;;
59880;SDS011;45751;51.380;10.326;2023-11-21T00:32:04;7.20;;;2.80;;
59880;SDS011;45751;51.380;10.326;2023-11-21T00:34:31;6.85;;;2.70;;
59880;SDS011;45751;51.380;10.326;2023-11-21T00:36:57;9.77;;;3.42;;
59880;SDS011;45751;51.380;10.326;2023-11-21T00:39:23;7.80;;;3.10;;
59880;SDS011;45751;51.380;10.326;2023-11-21T00:41:52;8.63;;;2.75;;
59880;SDS011;45751;51.380;10.326;2023-11-21T00:44:18;6.20;;;2.45;;
59880;SDS011;45751;51.380;10.326;2023-11-21T00:46:44;7.60;;;2.22;;
59880;SDS011;45751;51.380;10.326;2023-11-21T00:49:09;6.63;;;2.50;;
59880;SDS011;45751;51.380;10.326;2023-11-21T00:51:35;6.15;;;2.45;;
59880;SDS011;45751;51.380;10.326;2023-11-21T00:54:01;9.30;;;2.65;;
59880;SDS011;45751;51.380;10.326;2023-11-21T00:56:27;6.57;;;2.40;;
59880;SDS011;45751;51.380;10.326;2023-11-21T00:58:53;8.07;;;2.38;;
59880;SDS011;45751;51.380;10.326;2023-11-21T01:01:20;6.80;;;2.65;;
59880;SDS011;45751;51.380;10.326;2023-11-21T01:03:48;5.03;;;1.95;;
59880;SDS011;45751;51.380;10.326;2023-11-21T01:06:14;4.75;;;1.98;;
59880;SDS011;45751;51.380;10.326;2023-11-21T01:08:41;6.93;;;1.70;;
59880;SDS011;45751;51.380;10.326;2023-11-21T01:11:09;5.80;;;1.73;;
59880;SDS011;45751;51.380;10.326;2023-11-21T01:13:37;6.45;;;2.25;;
59880;SDS011;45751;51.380;10.326;2023-11-21T01:16:04;7.68;;;1.92;;
59880;SDS011;45751;51.380;10.326;2023-11-21T01:18:31;8.45;;;2.63;;
59880;SDS011;45751;51.380;10.326;2023-11-21T01:20:57;8.52;;;2.47;;
59880;SDS011;45751;51.380;10.326;2023-11-21T01:23:25;6.88;;;2.05;;
59880;SDS011;45751;51.380;10.326;2023-11-21T01:25:52;7.63;;;2.60;;
59880;SDS011;45751;51.380;10.326;2023-11-21T01:28:18;6.28;;;2.25;;
59880;SDS011;45751;51.380;10.326;2023-11-21T01:30:44;6.25;;;2.28;;
59880;SDS011;45751;51.380;10.326;2023-11-21T01:33:11;5.38;;;1.38;;
59880;SDS011;45751;51.380;10.326;2023-11-21T01:35:37;5.35;;;2.05;;
59880;SDS011;45751;51.380;10.326;2023-11-21T01:38:03;5.32;;;1.60;;
59880;SDS011;45751;51.380;10.326;2023-11-21T01:40:29;6.10;;;1.83;;
59880;SDS011;45751;51.380;10.326;2023-11-21T01:42:56;7.32;;;2.28;;
59880;SDS011;45751;51.380;10.326;2023-11-21T01:45:22;4.68;;;1.63;;
59880;SDS011;45751;51.380;10.326;2023-11-21T01:47:50;5.65;;;1.80;;
59880;SDS011;45751;51.380;10.326;2023-11-21T01:50:16;5.03;;;2.08;;
59880;SDS011;45751;51.380;10.326;2023-11-21T01:52:45;5.22;;;1.58;;
59880;SDS011;45751;51.380;10.326;2023-11-21T01:55:12;5.75;;;1.70;;
59880;SDS011;45751;51.380;10.326;2023-11-21T02:00:09;7.38;;;2.13;;
59880;SDS011;45751;51.380;10.326;2023-11-21T02:02:44;5.50;;;1.50;;
59880;SDS011;45751;51.380;10.326;2023-11-21T02:05:11;5.47;;;1.70;;
59880;SDS011;45751;51.380;10.326;2023-11-21T02:07:41;5.70;;;1.80;;
59880;SDS011;45751;51.380;10.326;2023-11-21T02:10:11;8.65;;;1.90;;
59880;SDS011;45751;51.380;10.326;2023-11-21T02:12:40;7.18;;;2.10;;
59880;SDS011;45751;51.380;10.326;2023-11-21T02:15:07;7.28;;;2.53;;
59880;SDS011;45751;51.380;10.326;2023-11-21T02:17:43;5.70;;;2.25;;
59880;SDS011;45751;51.380;10.326;2023-11-21T02:20:10;4.40;;;1.27;;
59880;SDS011;45751;51.380;10.326;2023-11-21T02:22:41;5.28;;;1.70;;
59880;SDS011;45751;51.380;10.326;2023-11-21T02:25:08;6.15;;;1.63;;
59880;SDS011;45751;51.380;10.326;2023-11-21T02:27:34;6.90;;;1.65;;
59880;SDS011;45751;51.380;10.326;2023-11-21T02:30:00;7.28;;;2.33;;
59880;SDS011;45751;51.380;10.326;2023-11-21T02:32:26;5.15;;;1.63;;
59880;SDS011;45751;51.380;10.326;2023-11-21T02:34:52;5.93;;;1.80;;
59880;SDS011;45751;51.380;10.326;2023-11-21T02:37:21;4.93;;;1.85;;
59880;SDS011;45751;51.380;10.326;2023-11-21T02:39:46;4.72;;;1.52;;
59880;SDS011;45751;51.380;10.326;2023-11-21T02:42:12;4.85;;;1.90;;
59880;SDS011;45751;51.380;10.326;2023-11-21T02:44:38;5.72;;;1.77;;
59880;SDS011;45751;51.380;10.326;2023-11-21T02:47:04;4.95;;;2.10;;
59880;SDS011;45751;51.380;10.326;2023-11-21T02:49:30;5.50;;;1.55;;
59880;SDS011;45751;51.380;10.326;2023-11-21T02:51:56;4.88;;;1.52;;
59880;SDS011;45751;51.380;10.326;2023-11-21T02:54:21;5.70;;;1.65;;
59880;SDS011;45751;51.380;10.326;2023-11-21T02:56:48;3.22;;;1.20;;
59880;SDS011;45751;51.380;10.326;2023-11-21T02:59:14;5.13;;;1.25;;
59880;SDS011;45751;51.380;10.326;2023-11-21T03:01:40;5.65;;;1.80;;
59880;SDS011;45751;51.380;10.326;2023-11-21T03:04:07;2.08;;;0.77;;
59880;SDS011;45751;51.380;10.326;2023-11-21T03:06:33;3.05;;;0.98;;
59880;SDS011;45751;51.380;10.326;2023-11-21T03:08:59;3.10;;;1.08;;
59880;SDS011;45751;51.380;10.326;2023-11-21T03:11:25;5.00;;;1.55;;
59880;SDS011;45751;51.380;10.326;2023-11-21T03:13:51;6.82;;;1.65;;
59880;SDS011;45751;51.380;10.326;2023-11-21T03:16:17;4.82;;;1.67;;
59880;SDS011;45751;51.380;10.326;2023-11-21T03:18:45;3.15;;;0.77;;
59880;SDS011;45751;51.380;10.326;2023-11-21T03:21:11;3.75;;;1.00;;
59880;SDS011;45751;51.380;10.326;2023-11-21T03:23:38;4.30;;;1.08;;
59880;SDS011;45751;51.380;10.326;2023-11-21T03:26:04;3.58;;;1.13;;
59880;SDS011;45751;51.380;10.326;2023-11-21T03:28:29;6.28;;;1.55;;
59880;SDS011;45751;51.380;10.326;2023-11-21T03:30:56;3.22;;;0.93;;
59880;SDS011;45751;51.380;10.326;2023-11-21T03:33:23;3.40;;;1.05;;
59880;SDS011;45751;51.380;10.326;2023-11-21T03:35:48;4.38;;;1.30;;
59880;SDS011;45751;51.380;10.326;2023-11-21T03:38:14;5.68;;;2.08;;
59880;SDS011;45751;51.380;10.326;2023-11-21T03:40:41;4.05;;;1.25;;
59880;SDS011;45751;51.380;10.326;2023-11-21T03:43:07;6.60;;;1.80;;
59880;SDS011;45751;51.380;10.326;2023-11-21T03:45:32;6.50;;;2.28;;
59880;SDS011;45751;51.380;10.326;2023-11-21T03:47:58;6.60;;;2.30;;
59880;SDS011;45751;51.380;10.326;2023-11-21T03:50:28;5.18;;;1.73;;
59880;SDS011;45751;51.380;10.326;2023-11-21T03:52:54;8.73;;;2.28;;
59880;SDS011;45751;51.380;10.326;2023-11-21T03:55:20;8.15;;;2.10;;
59880;SDS011;45751;51.380;10.326;2023-11-21T03:57:46;6.38;;;2.30;;
59880;SDS011;45751;51.380;10.326;2023-11-21T04:00:12;7.10;;;2.22;;
59880;SDS011;45751;51.380;10.326;2023-11-21T04:02:38;6.93;;;2.10;;
59880;SDS011;45751;51.380;10.326;2023-11-21T04:05:04;8.57;;;2.53;;
59880;SDS011;45751;51.380;10.326;2023-11-21T04:07:32;6.28;;;2.40;;
59880;SDS011;45751;51.380;10.326;2023-11-21T04:09:58;6.18;;;1.75;;
59880;SDS011;45751;51.380;10.326;2023-11-21T04:12:24;12.65;;;2.38;;
59880;SDS011;45751;51.380;10.326;2023-11-21T04:14:49;7.05;;;2.30;;
59880;SDS011;45751;51.380;10.326;2023-11-21T04:17:17;8.55;;;2.05;;
59880;SDS011;45751;51.380;10.326;2023-11-21T04:19:44;9.23;;;2.67;;
59880;SDS011;45751;51.380;10.326;2023-11-21T04:22:11;8.15;;;2.70;;
59880;SDS011;45751;51.380;10.326;2023-11-21T04:24:37;7.32;;;3.30;;
59880;SDS011;45751;51.380;10.326;2023-11-21T04:27:02;8.18;;;3.17;;
59880;SDS011;45751;51.380;10.326;2023-11-21T04:29:28;6.45;;;2.28;;
59880;SDS011;45751;51.380;10.326;2023-11-21T04:31:54;8.38;;;2.50;;
59880;SDS011;45751;51.380;10.326;2023-11-21T04:34:20;7.22;;;3.25;;
59880;SDS011;45751;51.380;10.326;2023-11-21T04:36:46;9.10;;;3.33;;
59880;SDS011;45751;51.380;10.326;2023-11-21T04:39:11;6.95;;;2.72;;
59880;SDS011;45751;51.380;10.326;2023-11-21T04:41:37;11.38;;;3.63;;
59880;SDS011;45751;51.380;10.326;2023-11-21T04:44:05;8.02;;;2.70;;
59880;SDS011;45751;51.380;10.326;2023-11-21T04:46:31;10.35;;;3.20;;
59880;SDS011;45751;51.380;10.326;2023-11-21T04:48:57;8.23;;;2.83;;
59880;SDS011;45751;51.380;10.326;2023-11-21T04:51:23;8.85;;;4.03;;
59880;SDS011;45751;51.380;10.326;2023-11-21T04:53:49;14.48;;;3.72;;
59880;SDS011;45751;51.380;10.326;2023-11-21T04:56:15;7.65;;;3.08;;
59880;SDS011;45751;51.380;10.326;2023-11-21T04:58:43;10.98;;;3.65;;
59880;SDS011;45751;51.380;10.326;2023-11-21T05:01:09;10.93;;;4.28;;
59880;SDS011;45751;51.380;10.326;2023-11-21T05:03:35;9.02;;;4.07;;
59880;SDS011;45751;51.380;10.326;2023-11-21T05:06:00;9.43;;;3.88;;
59880;SDS011;45751;51.380;10.326;2023-11-21T05:08:26;8.40;;;3.25;;
59880;SDS011;45751;51.380;10.326;2023-11-21T05:10:52;10.02;;;3.95;;
59880;SDS011;45751;51.380;10.326;2023-11-21T05:13:18;7.40;;;2.80;;
59880;SDS011;45751;51.380;10.326;2023-11-21T05:15:45;10.45;;;4.60;;
59880;SDS011;45751;51.380;10.326;2023-11-21T05:18:11;14.40;;;4.85;;
59880;SDS011;45751;51.380;10.326;2023-11-21T05:20:38;10.07;;;4.43;;
59880;SDS011;45751;51.380;10.326;2023-11-21T05:23:06;7.60;;;2.58;;
59880;SDS011;45751;51.380;10.326;2023-11-21T05:25:33;10.43;;;4.20;;
59880;SDS011;45751;51.380;10.326;2023-11-21T05:27:59;11.32;;;3.65;;
59880;SDS011;45751;51.380;10.326;2023-11-21T05:30:26;11.27;;;3.90;;
59880;SDS011;45751;51.380;10.326;2023-11-21T05:32:53;10.63;;;3.75;;
59880;SDS011;45751;51.380;10.326;2023-11-21T05:35:18;8.40;;;3.20;;
59880;SDS011;45751;51.380;10.326;2023-11-21T05:37:44;9.10;;;3.53;;
59880;SDS011;45751;51.380;10.326;2023-11-21T05:40:10;9.75;;;3.67;;
59880;SDS011;45751;51.380;10.326;2023-11-21T05:42:38;11.27;;;3.17;;
59880;SDS011;45751;51.380;10.326;2023-11-21T05:45:05;11.52;;;4.38;;
59880;SDS011;45751;51.380;10.326;2023-11-21T05:47:44;8.52;;;3.35;;
59880;SDS011;45751;51.380;10.326;2023-11-21T05:50:11;8.80;;;4.10;;
59880;SDS011;45751;51.380;10.326;2023-11-21T05:52:41;8.23;;;3.33;;
59880;SDS011;45751;51.380;10.326;2023-11-21T05:55:08;13.85;;;4.75;;
59880;SDS011;45751;51.380;10.326;2023-11-21T05:57:34;12.70;;;5.70;;
59880;SDS011;45751;51.380;10.326;2023-11-21T06:02:38;12.30;;;4.85;;
59880;SDS011;45751;51.380;10.326;2023-11-21T06:05:05;12.18;;;4.93;;
59880;SDS011;45751;51.380;10.326;2023-11-21T06:07:34;10.90;;;4.40;;
59880;SDS011;45751;51.380;10.326;2023-11-21T06:10:01;11.93;;;4.70;;
59880;SDS011;45751;51.380;10.326;2023-11-21T06:12:38;13.48;;;5.57;;
59880;SDS011;45751;51.380;10.326;2023-11-21T06:15:05;10.07;;;4.57;;
59880;SDS011;45751;51.380;10.326;2023-11-21T06:17:36;18.15;;;4.63;;
59880;SDS011;45751;51.380;10.326;2023-11-21T06:20:03;13.77;;;5.38;;
59880;SDS011;45751;51.380;10.326;2023-11-21T06:22:37;14.05;;;5.78;;
59880;SDS011;45751;51.380;10.326;2023-11-21T06:25:03;14.57;;;5.43;;
59880;SDS011;45751;51.380;10.326;2023-11-21T06:27:33;13.30;;;5.55;;
59880;SDS011;45751;51.380;10.326;2023-11-21T06:30:01;13.45;;;5.22;;
59880;SDS011;45751;51.380;10.326;2023-11-21T06:32:27;11.95;;;4.78;;
59880;SDS011;45751;51.380;10.326;2023-11-21T06:34:57;20.45;;;5.75;;
59880;SDS011;45751;51.380;10.326;2023-11-21T06:37:26;14.30;;;5.25;;
59880;SDS011;45751;51.380;10.326;2023-11-21T06:39:53;20.02;;;4.93;;
59880;SDS011;45751;51.380;10.326;2023-11-21T06:42:21;13.32;;;4.68;;
59880;SDS011;45751;51.380;10.326;2023-11-21T06:44:49;12.95;;;5.25;;
59880;SDS011;45751;51.380;10.326;2023-11-21T06:47:17;11.80;;;4.40;;
59880;SDS011;45751;51.380;10.326;2023-11-21T06:49:45;12.48;;;5.65;;
59880;SDS011;45751;51.380;10.326;2023-11-21T06:52:13;14.55;;;5.63;;
59880;SDS011;45751;51.380;10.326;2023-11-21T06:54:38;11.77;;;5.97;;
59880;SDS011;45751;51.380;10.326;2023-11-21T06:57:05;18.10;;;6.35;;
59880;SDS011;45751;51.380;10.326;2023-11-21T06:59:30;10.63;;;4.97;;
59880;SDS011;45751;51.380;10.326;2023-11-21T07:01:56;17.05;;;5.30;;
59880;SDS011;45751;51.380;10.326;2023-11-21T07:04:22;16.95;;;6.75;;
59880;SDS011;45751;51.380;10.326;2023-11-21T07:06:49;14.10;;;5.47;;
59880;SDS011;45751;51.380;10.326;2023-11-21T07:09:15;13.75;;;5.90;;
59880;SDS011;45751;51.380;10.326;2023-11-21T07:11:40;16.23;;;5.47;;
59880;SDS011;45751;51.380;10.326;2023-11-21T07:14:06;17.13;;;5.78;;
59880;SDS011;45751;51.380;10.326;2023-11-21T07:16:36;17.90;;;6.15;;
59880;SDS011;45751;51.380;10.326;2023-11-21T07:19:05;12.98;;;5.10;;
59880;SDS011;45751;51.380;10.326;2023-11-21T07:21:35;15.10;;;5.88;;
59880;SDS011;45751;51.380;10.326;2023-11-21T07:24:01;18.25;;;7.60;;
59880;SDS011;45751;51.380;10.326;2023-11-21T07:26:28;20.00;;;6.82;;
59880;SDS011;45751;51.380;10.326;2023-11-21T07:28:55;18.63;;;5.82;;
59880;SDS011;45751;51.380;10.326;2023-11-21T07:31:21;13.85;;;4.78;;
59880;SDS011;45751;51.380;10.326;2023-11-21T07:33:47;16.30;;;6.72;;
59880;SDS011;45751;51.380;10.326;2023-11-21T07:36:14;15.15;;;6.15;;
59880;SDS011;45751;51.380;10.326;2023-11-21T07:38:40;22.38;;;6.22;;
59880;SDS011;45751;51.380;10.326;2023-11-21T07:41:07;17.50;;;6.40;;
59880;SDS011;45751;51.380;10.326;2023-11-21T07:43:34;17.83;;;5.07;;
59880;SDS011;45751;51.380;10.326;2023-11-21T07:46:03;20.08;;;6.05;;
59880;SDS011;45751;51.380;10.326;2023-11-21T07:48:30;20.52;;;5.85;;
59880;SDS011;45751;51.380;10.326;2023-11-21T07:51:00;13.50;;;6.10;;
59880;SDS011;45751;51.380;10.326;2023-11-21T07:53:28;19.35;;;6.38;;
59880;SDS011;45751;51.380;10.326;2023-11-21T07:55:58;17.42;;;5.20;;
59880;SDS011;45751;51.380;10.326;2023-11-21T07:58:27;23.55;;;8.57;;
59880;SDS011;45751;51.380;10.326;2023-11-21T08:00:53;18.02;;;5.93;;
59880;SDS011;45751;51.380;10.326;2023-11-21T08:03:19;16.77;;;6.07;;
59880;SDS011;45751;51.380;10.326;2023-11-21T08:05:46;21.67;;;6.00;;
59880;SDS011;45751;51.380;10.326;2023-11-21T08:08:12;18.17;;;7.57;;
59880;SDS011;45751;51.380;10.326;2023-11-21T08:10:37;16.38;;;6.22;;
59880;SDS011;45751;51.380;10.326;2023-11-21T08:13:07;14.13;;;6.50;;
59880;SDS011;45751;51.380;10.326;2023-11-21T08:15:34;18.10;;;7.40;;
59880;SDS011;45751;51.380;10.326;2023-11-21T08:18:02;18.92;;;7.60;;
59880;SDS011;45751;51.380;10.326;2023-11-21T08:20:27;22.50;;;7.93;;
59880;SDS011;45751;51.380;10.326;2023-11-21T08:22:54;13.75;;;5.65;;
59880;SDS011;45751;51.380;10.326;2023-11-21T08:25:22;17.73;;;6.90;;
59880;SDS011;45751;51.380;10.326;2023-11-21T08:27:47;19.65;;;6.43;;
59880;SDS011;45751;51.380;10.326;2023-11-21T08:30:13;16.02;;;6.38;;
59880;SDS011;45751;51.380;10.326;2023-11-21T08:32:42;17.42;;;5.65;;
59880;SDS011;45751;51.380;10.326;2023-11-21T08:35:08;17.63;;;5.40;;
59880;SDS011;45751;51.380;10.326;2023-11-21T08:37:34;19.02;;;6.85;;
59880;SDS011;45751;51.380;10.326;2023-11-21T08:40:02;18.70;;;6.93;;
59880;SDS011;45751;51.380;10.326;2023-11-21T08:42:29;19.17;;;7.05;;
59880;SDS011;45751;51.380;10.326;2023-11-21T08:44:55;18.73;;;6.82;;
59880;SDS011;45751;51.380;10.326;2023-11-21T08:47:24;18.77;;;6.30;;
59880;SDS011;45751;51.380;10.326;2023-11-21T08:49:51;16.85;;;6.68;;
59880;SDS011;45751;51.380;10.326;2023-11-21T08:52:20;20.67;;;7.68;;
59880;SDS011;45751;51.380;10.326;2023-11-21T08:54:48;22.08;;;8.02;;
59880;SDS011;45751;51.380;10.326;2023-11-21T08:57:19;19.20;;;8.68;;
59880;SDS011;45751;51.380;10.326;2023-11-21T08:59:45;23.40;;;8.68;;
59880;SDS011;45751;51.380;10.326;2023-11-21T09:02:11;19.75;;;7.20;;
59880;SDS011;45751;51.380;10.326;2023-11-21T09:04:37;25.65;;;8.40;;
59880;SDS011;45751;51.380;10.326;2023-11-21T09:07:03;18.15;;;7.60;;
59880;SDS011;45751;51.380;10.326;2023-11-21T09:09:28;20.73;;;7.55;;
59880;SDS011;45751;51.380;10.326;2023-11-21T09:11:55;23.27;;;7.10;;
59880;SDS011;45751;51.380;10.326;2023-11-21T09:14:20;23.10;;;7.28;;
59880;SDS011;45751;51.380;10.326;2023-11-21T09:16:46;25.05;;;8.30;;
59880;SDS011;45751;51.380;10.326;2023-11-21T09:19:12;29.27;;;12.20;;
59880;SDS011;45751;51.380;10.326;2023-11-21T09:21:39;21.88;;;9.07;;
59880;SDS011;45751;51.380;10.326;2023-11-21T09:24:05;19.00;;;6.93;;
59880;SDS011;45751;51.380;10.326;2023-11-21T09:26:31;19.90;;;7.20;;
59880;SDS011;45751;51.380;10.326;2023-11-21T09:28:56;22.42;;;7.15;;
59880;SDS011;45751;51.380;10.326;2023-11-21T09:31:22;28.48;;;7.60;;
59880;SDS011;45751;51.380;10.326;2023-11-21T09:33:49;24.00;;;7.05;;
59880;SDS011;45751;51.380;10.326;2023-11-21T09:36:15;21.90;;;8.95;;
59880;SDS011;45751;51.380;10.326;2023-11-21T09:38:41;23.80;;;8.82;;
59880;SDS011;45751;51.380;10.326;2023-11-21T09:41:10;22.50;;;8.38;;
59880;SDS011;45751;51.380;10.326;2023-11-21T09:43:46;18.98;;;6.88;;
59880;SDS011;45751;51.380;10.326;2023-11-21T09:46:12;24.20;;;8.40;;
59880;SDS011;45751;51.380;10.326;2023-11-21T09:48:45;18.70;;;6.32;;
59880;SDS011;45751;51.380;10.326;2023-11-21T09:51:15;23.52;;;7.07;;
59880;SDS011;45751;51.380;10.326;2023-11-21T09:53:45;16.15;;;6.30;;
59880;SDS011;45751;51.380;10.326;2023-11-21T09:56:14;25.63;;;7.18;;
59880;SDS011;45751;51.380;10.326;2023-11-21T09:58:44;22.25;;;7.90;;
59880;SDS011;45751;51.380;10.326;2023-11-21T10:01:10;23.80;;;7.07;;
59880;SDS011;45751;51.380;10.326;2023-11-21T10:03:38;25.75;;;7.20;;
59880;SDS011;45751;51.380;10.326;2023-11-21T10:06:04;18.70;;;6.15;;
59880;SDS011;45751;51.380;10.326;2023-11-21T10:08:31;16.42;;;5.72;;
59880;SDS011;45751;51.380;10.326;2023-11-21T10:10:58;19.80;;;6.00;;
59880;SDS011;45751;51.380;10.326;2023-11-21T10:13:24;19.27;;;7.07;;
59880;SDS011;45751;51.380;10.326;2023-11-21T10:15:55;20.58;;;5.75;;
59880;SDS011;45751;51.380;10.326;2023-11-21T10:18:22;16.65;;;5.53;;
59880;SDS011;45751;51.380;10.326;2023-11-21T10:20:50;13.95;;;5.60;;
59880;SDS011;45751;51.380;10.326;2023-11-21T10:23:19;17.77;;;5.28;;
59880;SDS011;45751;51.380;10.326;2023-11-21T10:25:47;19.58;;;5.68;;
59880;SDS011;45751;51.380;10.326;2023-11-21T10:28:14;18.65;;;7.43;;
59880;SDS011;45751;51.380;10.326;2023-11-21T10:30:40;20.25;;;6.53;;
59880;SDS011;45751;51.380;10.326;2023-11-21T10:33:06;11.80;;;5.25;;
59880;SDS011;45751;51.380;10.326;2023-11-21T10:35:48;16.08;;;5.55;;
59880;SDS011;45751;51.380;10.326;2023-11-21T10:38:20;15.15;;;5.40;;
59880;SDS011;45751;51.380;10.326;2023-11-21T10:40:48;24.17;;;9.85;;
59880;SDS011;45751;51.380;10.326;2023-11-21T10:43:15;15.38;;;6.05;;
59880;SDS011;45751;51.380;10.326;2023-11-21T10:45:41;13.50;;;5.25;;
59880;SDS011;45751;51.380;10.326;2023-11-21T10:48:08;17.13;;;4.57;;
59880;SDS011;45751;51.380;10.326;2023-11-21T10:50:38;15.43;;;6.05;;
59880;SDS011;45751;51.380;10.326;2023-11-21T10:53:04;16.35;;;5.00;;
59880;SDS011;45751;51.380;10.326;2023-11-21T10:55:31;14.80;;;5.25;;
59880;SDS011;45751;51.380;10.326;2023-11-21T10:58:02;12.10;;;5.47;;
59880;SDS011;45751;51.380;10.326;2023-11-21T11:00:30;12.35;;;4.70;;
59880;SDS011;45751;51.380;10.326;2023-11-21T11:02:56;13.75;;;4.55;;
59880;SDS011;45751;51.380;10.326;2023-11-21T11:05:24;9.95;;;4.00;;
59880;SDS011;45751;51.380;10.326;2023-11-21T11:07:56;10.57;;;4.80;;
59880;SDS011;45751;51.380;10.326;2023-11-21T11:10:31;9.57;;;4.30;;
59880;SDS011;45751;51.380;10.326;2023-11-21T11:12:57;7.70;;;2.63;;
59880;SDS011;45751;51.380;10.326;2023-11-21T11:15:24;11.32;;;3.08;;
59880;SDS011;45751;51.380;10.326;2023-11-21T11:17:52;12.00;;;4.07;;
59880;SDS011;45751;51.380;10.326;2023-11-21T11:20:22;11.57;;;3.22;;
59880;SDS011;45751;51.380;10.326;2023-11-21T11:28:44;13.18;;;3.40;;
59880;SDS011;45751;51.380;10.326;2023-11-21T11:33:53;10.10;;;3.83;;
59880;SDS011;45751;51.380;10.326;2023-11-21T11:36:26;8.60;;;2.25;;
59880;SDS011;45751;51.380;10.326;2023-11-21T11:39:01;7.85;;;2.60;;
59880;SDS011;45751;51.380;10.326;2023-11-21T11:41:29;7.70;;;2.30;;
59880;SDS011;45751;51.380;10.326;2023-11-21T11:43:59;6.32;;;2.40;;
59880;SDS011;45751;51.380;10.326;2023-11-21T11:46:44;8.27;;;3.00;;
59880;SDS011;45751;51.380;10.326;2023-11-21T11:49:23;6.97;;;2.15;;
59880;SDS011;45751;51.380;10.326;2023-11-21T11:54:56;6.00;;;2.10;;
59880;SDS011;45751;51.380;10.326;2023-11-21T11:57:24;6.35;;;2.00;;
59880;SDS011;45751;51.380;10.326;2023-11-21T12:00:10;8.18;;;2.30;;
59880;SDS011;45751;51.380;10.326;2023-11-21T12:02:41;9.25;;;3.38;;
59880;SDS011;45751;51.380;10.326;2023-11-21T12:05:10;8.25;;;2.50;;
59880;SDS011;45751;51.380;10.326;2023-11-21T12:10:17;10.90;;;4.57;;
59880;SDS011;45751;51.380;10.326;2023-11-21T12:12:48;6.43;;;2.35;;
59880;SDS011;45751;51.380;10.326;2023-11-21T12:15:15;8.35;;;2.28;;
59880;SDS011;45751;51.380;10.326;2023-11-21T12:17:41;9.90;;;2.92;;
59880;SDS011;45751;51.380;10.326;2023-11-21T12:20:09;11.88;;;4.22;;
59880;SDS011;45751;51.380;10.326;2023-11-21T12:22:45;8.75;;;3.17;;
59880;SDS011;45751;51.380;10.326;2023-11-21T12:25:13;10.02;;;3.60;;
59880;SDS011;45751;51.380;10.326;2023-11-21T12:27:47;11.20;;;3.67;;
59880;SDS011;45751;51.380;10.326;2023-11-21T12:32:47;10.93;;;2.88;;
59880;SDS011;45751;51.380;10.326;2023-11-21T12:35:17;10.88;;;4.38;;
59880;SDS011;45751;51.380;10.326;2023-11-21T12:37:47;12.15;;;4.53;;
59880;SDS011;45751;51.380;10.326;2023-11-21T12:40:13;9.98;;;4.15;;
59880;SDS011;45751;51.380;10.326;2023-11-21T12:42:44;13.77;;;5.07;;
59880;SDS011;45751;51.380;10.326;2023-11-21T12:47:51;11.95;;;4.32;;
59880;SDS011;45751;51.380;10.326;2023-11-21T12:50:22;15.88;;;5.47;;
59880;SDS011;45751;51.380;10.326;2023-11-21T12:52:51;13.05;;;4.70;;
59880;SDS011;45751;51.380;10.326;2023-11-21T12:55:22;13.70;;;4.95;;
59880;SDS011;45751;51.380;10.326;2023-11-21T12:57:57;14.23;;;5.30;;
59880;SDS011;45751;51.380;10.326;2023-11-21T13:00:33;14.55;;;5.35;;
59880;SDS011;45751;51.380;10.326;2023-11-21T13:03:02;11.60;;;4.47;;
59880;SDS011;45751;51.380;10.326;2023-11-21T13:05:33;13.68;;;5.35;;
59880;SDS011;45751;51.380;10.326;2023-11-21T13:08:01;17.35;;;5.20;;
59880;SDS011;45751;51.380;10.326;2023-11-21T13:10:29;11.70;;;4.75;;
59880;SDS011;45751;51.380;10.326;2023-11-21T13:12:59;15.38;;;5.05;;
59880;SDS011;45751;51.380;10.326;2023-11-21T13:15:26;13.13;;;4.90;;
59880;SDS011;45751;51.380;10.326;2023-11-21T13:17:53;10.68;;;3.72;;
59880;SDS011;45751;51.380;10.326;2023-11-21T13:20:19;13.07;;;4.72;;
59880;SDS011;45751;51.380;10.326;2023-11-21T13:23:07;13.35;;;4.82;;
59880;SDS011;45751;51.380;10.326;2023-11-21T13:28:06;8.38;;;2.35;;
59880;SDS011;45751;51.380;10.326;2023-11-21T13:30:32;8.23;;;2.63;;
59880;SDS011;45751;51.380;10.326;2023-11-21T13:33:07;5.82;;;2.25;;
59880;SDS011;45751;51.380;10.326;2023-11-21T13:35:35;8.10;;;2.53;;
59880;SDS011;45751;51.380;10.326;2023-11-21T13:38:07;8.02;;;2.58;;
59880;SDS011;45751;51.380;10.326;2023-11-21T13:40:34;9.88;;;4.18;;
59880;SDS011;45751;51.380;10.326;2023-11-21T13:43:15;8.93;;;3.67;;
59880;SDS011;45751;51.380;10.326;2023-11-21T13:45:43;9.70;;;3.53;;
59880;SDS011;45751;51.380;10.326;2023-11-21T13:48:10;11.27;;;3.58;;
59880;SDS011;45751;51.380;10.326;2023-11-21T13:50:45;11.07;;;4.03;;
59880;SDS011;45751;51.380;10.326;2023-11-21T13:53:23;10.75;;;3.92;;
59880;SDS011;45751;51.380;10.326;2023-11-21T13:55:49;12.70;;;5.00;;
59880;SDS011;45751;51.380;10.326;2023-11-21T13:58:16;13.68;;;5.32;;
59880;SDS011;45751;51.380;10.326;2023-11-21T14:00:48;12.93;;;4.18;;
59880;SDS011;45751;51.380;10.326;2023-11-21T14:03:22;12.13;;;5.45;;
59880;SDS011;45751;51.380;10.326;2023-11-21T14:05:57;14.90;;;6.32;;
59880;SDS011;45751;51.380;10.326;2023-11-21T14:08:25;14.50;;;5.70;;
59880;SDS011;45751;51.380;10.326;2023-11-21T14:10:56;14.38;;;6.50;;
59880;SDS011;45751;51.380;10.326;2023-11-21T14:13:24;14.45;;;5.03;;
59880;SDS011;45751;51.380;10.326;2023-11-21T14:15:53;10.50;;;5.03;;
59880;SDS011;45751;51.380;10.326;2023-11-21T14:18:26;14.93;;;5.85;;
59880;SDS011;45751;51.380;10.326;2023-11-21T14:20:57;14.13;;;6.78;;
59880;SDS011;45751;51.380;10.326;2023-11-21T14:23:22;13.65;;;5.30;;
59880;SDS011;45751;51.380;10.326;2023-11-21T14:25:48;11.00;;;5.05;;
59880;SDS011;45751;51.380;10.326;2023-11-21T14:28:17;11.65;;;4.30;;
59880;SDS011;45751;51.380;10.326;2023-11-21T14:30:44;15.35;;;5.18;;
59880;SDS011;45751;51.380;10.326;2023-11-21T14:33:11;11.73;;;4.32;;
59880;SDS011;45751;51.380;10.326;2023-11-21T14:35:37;12.73;;;4.25;;
59880;SDS011;45751;51.380;10.326;2023-11-21T14:38:03;10.15;;;4.88;;
59880;SDS011;45751;51.380;10.326;2023-11-21T14:40:33;11.10;;;4.68;;
59880;SDS011;45751;51.380;10.326;2023-11-21T14:43:00;10.23;;;5.00;;
59880;SDS011;45751;51.380;10.326;2023-11-21T14:45:33;8.80;;;3.75;;
59880;SDS011;45751;51.380;10.326;2023-11-21T14:47:59;8.98;;;3.33;;
59880;SDS011;45751;51.380;10.326;2023-11-21T14:50:33;9.95;;;4.60;;
59880;SDS011;45751;51.380;10.326;2023-11-21T14:53:29;11.90;;;5.05;;
59880;SDS011;45751;51.380;10.326;2023-11-21T14:56:19;11.43;;;4.68;;
59880;SDS011;45751;51.380;10.326;2023-11-21T14:59:00;11.07;;;3.88;;